sensor_id;sensor_type;location;lat;lon;timestamp;P1;durP1;ratioP1;P2;durP2;ratioP2
12921;SDS011;6528;48.086;16.282;2023-08-31T00:02:22;2.10;;;1.77;;
12921;SDS011;6528;48.086;16.282;2023-08-31T00:04:51;1.70;;;1.60;;
12921;SDS011;6528;48.086;16.282;2023-08-31T00:07:21;2.07;;;1.97;;
12921;SDS011;6528;48.086;16.282;2023-08-31T00:09:49;1.90;;;1.80;;
12921;SDS011;6528;48.086;16.282;2023-08-31T00:12:18;2.03;;;1.90;;
12921;SDS011;6528;48.086;16.282;2023-08-31T00:14:46;1.80;;;1.70;;
12921;SDS011;6528;48.086;16.282;2023-08-31T00:17:17;1.97;;;1.77;;
12921;SDS011;6528;48.086;16.282;2023-08-31T00:19:44;1.90;;;1.80;;
12921;SDS011;6528;48.086;16.282;2023-08-31T00:22:13;2.00;;;1.90;;
12921;SDS011;6528;48.086;16.282;2023-08-31T00:24:40;3.00;;;1.70;;
12921;SDS011;6528;48.086;16.282;2023-08-31T00:27:09;1.83;;;1.73;;
12921;SDS011;6528;48.086;16.282;2023-08-31T00:29:38;2.40;;;2.10;;
12921;SDS011;6528;48.086;16.282;2023-08-31T00:32:05;1.90;;;1.80;;
12921;SDS011;6528;48.086;16.282;2023-08-31T00:34:36;1.30;;;1.23;;
12921;SDS011;6528;48.086;16.282;2023-08-31T00:37:04;1.83;;;1.73;;
12921;SDS011;6528;48.086;16.282;2023-08-31T00:39:32;2.03;;;1.83;;
12921;SDS011;6528;48.086;16.282;2023-08-31T00:42:01;2.17;;;1.80;;
12921;SDS011;6528;48.086;16.282;2023-08-31T00:44:29;3.30;;;2.13;;
12921;SDS011;6528;48.086;16.282;2023-08-31T00:46:58;1.83;;;1.73;;
12921;SDS011;6528;48.086;16.282;2023-08-31T00:49:29;1.83;;;1.73;;
12921;SDS011;6528;48.086;16.282;2023-08-31T00:51:56;2.17;;;1.87;;
12921;SDS011;6528;48.086;16.282;2023-08-31T00:54:25;2.20;;;2.00;;
12921;SDS011;6528;48.086;16.282;2023-08-31T00:56:54;1.80;;;1.70;;
12921;SDS011;6528;48.086;16.282;2023-08-31T00:59:23;2.90;;;2.40;;
12921;SDS011;6528;48.086;16.282;2023-08-31T01:02:07;2.17;;;2.07;;
12921;SDS011;6528;48.086;16.282;2023-08-31T01:13:11;2.00;;;1.90;;
12921;SDS011;6528;48.086;16.282;2023-08-31T01:15:49;1.90;;;1.80;;
12921;SDS011;6528;48.086;16.282;2023-08-31T01:18:21;1.77;;;1.67;;
12921;SDS011;6528;48.086;16.282;2023-08-31T01:20:55;4.23;;;1.90;;
12921;SDS011;6528;48.086;16.282;2023-08-31T01:26:28;2.17;;;2.07;;
12921;SDS011;6528;48.086;16.282;2023-08-31T01:28:55;2.20;;;2.10;;
12921;SDS011;6528;48.086;16.282;2023-08-31T01:31:24;1.80;;;1.70;;
12921;SDS011;6528;48.086;16.282;2023-08-31T01:33:53;1.83;;;1.73;;
12921;SDS011;6528;48.086;16.282;2023-08-31T01:36:23;2.17;;;1.93;;
12921;SDS011;6528;48.086;16.282;2023-08-31T01:38:57;2.20;;;1.67;;
12921;SDS011;6528;48.086;16.282;2023-08-31T01:41:34;2.03;;;1.90;;
12921;SDS011;6528;48.086;16.282;2023-08-31T01:44:04;2.20;;;1.93;;
12921;SDS011;6528;48.086;16.282;2023-08-31T01:46:38;2.40;;;2.00;;
12921;SDS011;6528;48.086;16.282;2023-08-31T01:49:06;2.30;;;2.10;;
12921;SDS011;6528;48.086;16.282;2023-08-31T01:51:34;2.30;;;2.20;;
12921;SDS011;6528;48.086;16.282;2023-08-31T01:54:03;2.27;;;2.17;;
12921;SDS011;6528;48.086;16.282;2023-08-31T01:56:30;1.90;;;1.80;;
12921;SDS011;6528;48.086;16.282;2023-08-31T01:58:59;3.17;;;1.90;;
12921;SDS011;6528;48.086;16.282;2023-08-31T02:01:26;2.30;;;1.90;;
12921;SDS011;6528;48.086;16.282;2023-08-31T02:03:55;2.00;;;1.90;;
12921;SDS011;6528;48.086;16.282;2023-08-31T02:06:22;1.93;;;1.83;;
12921;SDS011;6528;48.086;16.282;2023-08-31T02:08:50;2.00;;;1.90;;
12921;SDS011;6528;48.086;16.282;2023-08-31T02:11:18;2.10;;;1.90;;
12921;SDS011;6528;48.086;16.282;2023-08-31T02:13:48;1.90;;;1.80;;
12921;SDS011;6528;48.086;16.282;2023-08-31T02:16:15;2.70;;;2.50;;
12921;SDS011;6528;48.086;16.282;2023-08-31T02:18:43;2.00;;;1.90;;
12921;SDS011;6528;48.086;16.282;2023-08-31T02:21:10;2.13;;;2.00;;
12921;SDS011;6528;48.086;16.282;2023-08-31T02:23:38;2.40;;;2.30;;
12921;SDS011;6528;48.086;16.282;2023-08-31T02:26:06;1.90;;;1.80;;
12921;SDS011;6528;48.086;16.282;2023-08-31T02:28:34;2.10;;;2.00;;
12921;SDS011;6528;48.086;16.282;2023-08-31T02:31:01;2.70;;;2.30;;
12921;SDS011;6528;48.086;16.282;2023-08-31T02:33:30;2.40;;;2.20;;
12921;SDS011;6528;48.086;16.282;2023-08-31T02:35:58;2.30;;;1.90;;
12921;SDS011;6528;48.086;16.282;2023-08-31T02:38:27;1.90;;;1.80;;
12921;SDS011;6528;48.086;16.282;2023-08-31T02:40:54;2.13;;;2.03;;
12921;SDS011;6528;48.086;16.282;2023-08-31T02:43:23;2.10;;;2.00;;
12921;SDS011;6528;48.086;16.282;2023-08-31T02:46:01;2.17;;;2.03;;
12921;SDS011;6528;48.086;16.282;2023-08-31T02:48:33;3.47;;;1.93;;
12921;SDS011;6528;48.086;16.282;2023-08-31T02:51:01;2.10;;;2.00;;
12921;SDS011;6528;48.086;16.282;2023-08-31T02:53:30;1.73;;;1.63;;
12921;SDS011;6528;48.086;16.282;2023-08-31T02:55:58;1.80;;;1.70;;
12921;SDS011;6528;48.086;16.282;2023-08-31T02:58:26;2.13;;;2.03;;
12921;SDS011;6528;48.086;16.282;2023-08-31T03:00:54;2.20;;;2.07;;
12921;SDS011;6528;48.086;16.282;2023-08-31T03:03:22;1.90;;;1.80;;
12921;SDS011;6528;48.086;16.282;2023-08-31T03:05:54;2.20;;;1.90;;
12921;SDS011;6528;48.086;16.282;2023-08-31T03:08:23;2.60;;;2.30;;
12921;SDS011;6528;48.086;16.282;2023-08-31T03:10:50;1.80;;;1.70;;
12921;SDS011;6528;48.086;16.282;2023-08-31T03:13:19;2.50;;;2.33;;
12921;SDS011;6528;48.086;16.282;2023-08-31T03:15:48;2.03;;;1.93;;
12921;SDS011;6528;48.086;16.282;2023-08-31T03:18:15;1.90;;;1.80;;
12921;SDS011;6528;48.086;16.282;2023-08-31T03:20:43;2.10;;;1.90;;
12921;SDS011;6528;48.086;16.282;2023-08-31T03:23:10;1.73;;;1.63;;
12921;SDS011;6528;48.086;16.282;2023-08-31T03:25:38;1.70;;;1.60;;
12921;SDS011;6528;48.086;16.282;2023-08-31T03:28:06;1.80;;;1.70;;
12921;SDS011;6528;48.086;16.282;2023-08-31T03:30:34;2.07;;;1.93;;
12921;SDS011;6528;48.086;16.282;2023-08-31T03:33:02;2.17;;;2.07;;
12921;SDS011;6528;48.086;16.282;2023-08-31T03:35:31;2.00;;;1.90;;
12921;SDS011;6528;48.086;16.282;2023-08-31T03:38:00;2.30;;;2.10;;
12921;SDS011;6528;48.086;16.282;2023-08-31T03:40:27;2.13;;;1.80;;
12921;SDS011;6528;48.086;16.282;2023-08-31T03:42:56;1.77;;;1.67;;
12921;SDS011;6528;48.086;16.282;2023-08-31T03:45:24;1.70;;;1.60;;
12921;SDS011;6528;48.086;16.282;2023-08-31T03:47:52;3.00;;;2.10;;
12921;SDS011;6528;48.086;16.282;2023-08-31T03:50:20;2.07;;;1.50;;
12921;SDS011;6528;48.086;16.282;2023-08-31T03:52:48;2.23;;;2.00;;
12921;SDS011;6528;48.086;16.282;2023-08-31T03:55:18;1.70;;;1.60;;
12921;SDS011;6528;48.086;16.282;2023-08-31T03:57:46;1.67;;;1.63;;
12921;SDS011;6528;48.086;16.282;2023-08-31T04:00:14;1.67;;;1.57;;
12921;SDS011;6528;48.086;16.282;2023-08-31T04:02:43;1.97;;;1.87;;
12921;SDS011;6528;48.086;16.282;2023-08-31T04:05:11;1.83;;;1.73;;
12921;SDS011;6528;48.086;16.282;2023-08-31T04:07:42;1.67;;;1.57;;
12921;SDS011;6528;48.086;16.282;2023-08-31T04:10:12;2.27;;;2.17;;
12921;SDS011;6528;48.086;16.282;2023-08-31T04:12:39;1.93;;;1.83;;
12921;SDS011;6528;48.086;16.282;2023-08-31T04:15:07;2.20;;;1.70;;
12921;SDS011;6528;48.086;16.282;2023-08-31T04:17:35;2.10;;;2.00;;
12921;SDS011;6528;48.086;16.282;2023-08-31T04:20:03;1.93;;;1.73;;
12921;SDS011;6528;48.086;16.282;2023-08-31T04:22:32;1.50;;;1.40;;
12921;SDS011;6528;48.086;16.282;2023-08-31T04:25:00;2.10;;;1.53;;
12921;SDS011;6528;48.086;16.282;2023-08-31T04:27:27;1.53;;;1.43;;
12921;SDS011;6528;48.086;16.282;2023-08-31T04:30:01;1.60;;;1.50;;
12921;SDS011;6528;48.086;16.282;2023-08-31T04:32:30;2.10;;;2.00;;
12921;SDS011;6528;48.086;16.282;2023-08-31T04:34:59;1.57;;;1.47;;
12921;SDS011;6528;48.086;16.282;2023-08-31T04:37:26;1.57;;;1.47;;
12921;SDS011;6528;48.086;16.282;2023-08-31T04:39:54;1.83;;;1.73;;
12921;SDS011;6528;48.086;16.282;2023-08-31T04:42:22;1.60;;;1.50;;
12921;SDS011;6528;48.086;16.282;2023-08-31T04:44:50;1.93;;;1.80;;
12921;SDS011;6528;48.086;16.282;2023-08-31T04:47:18;1.60;;;1.50;;
12921;SDS011;6528;48.086;16.282;2023-08-31T04:49:45;1.30;;;1.20;;
12921;SDS011;6528;48.086;16.282;2023-08-31T04:52:14;1.87;;;1.77;;
12921;SDS011;6528;48.086;16.282;2023-08-31T04:54:42;1.70;;;1.60;;
12921;SDS011;6528;48.086;16.282;2023-08-31T04:57:10;1.53;;;1.43;;
12921;SDS011;6528;48.086;16.282;2023-08-31T04:59:38;1.70;;;1.60;;
12921;SDS011;6528;48.086;16.282;2023-08-31T05:02:06;1.33;;;1.23;;
12921;SDS011;6528;48.086;16.282;2023-08-31T05:04:36;1.87;;;1.77;;
12921;SDS011;6528;48.086;16.282;2023-08-31T05:07:03;1.43;;;1.33;;
12921;SDS011;6528;48.086;16.282;2023-08-31T05:09:32;2.03;;;1.90;;
12921;SDS011;6528;48.086;16.282;2023-08-31T05:12:02;1.43;;;1.33;;
12921;SDS011;6528;48.086;16.282;2023-08-31T05:14:30;1.90;;;1.60;;
12921;SDS011;6528;48.086;16.282;2023-08-31T05:16:57;1.60;;;1.47;;
12921;SDS011;6528;48.086;16.282;2023-08-31T05:19:24;2.50;;;1.17;;
12921;SDS011;6528;48.086;16.282;2023-08-31T05:21:55;1.77;;;1.67;;
12921;SDS011;6528;48.086;16.282;2023-08-31T05:24:23;1.00;;;1.00;;
12921;SDS011;6528;48.086;16.282;2023-08-31T05:26:51;2.00;;;1.30;;
12921;SDS011;6528;48.086;16.282;2023-08-31T05:29:19;1.63;;;1.53;;
12921;SDS011;6528;48.086;16.282;2023-08-31T05:31:47;1.70;;;1.60;;
12921;SDS011;6528;48.086;16.282;2023-08-31T05:34:20;1.57;;;1.47;;
12921;SDS011;6528;48.086;16.282;2023-08-31T05:36:49;1.10;;;1.10;;
12921;SDS011;6528;48.086;16.282;2023-08-31T05:39:16;1.70;;;1.60;;
12921;SDS011;6528;48.086;16.282;2023-08-31T05:41:45;1.47;;;1.40;;
12921;SDS011;6528;48.086;16.282;2023-08-31T05:44:12;1.87;;;1.60;;
12921;SDS011;6528;48.086;16.282;2023-08-31T05:46:40;2.60;;;2.10;;
12921;SDS011;6528;48.086;16.282;2023-08-31T05:49:08;2.00;;;1.90;;
12921;SDS011;6528;48.086;16.282;2023-08-31T05:51:36;1.50;;;1.40;;
12921;SDS011;6528;48.086;16.282;2023-08-31T05:54:03;1.50;;;1.40;;
12921;SDS011;6528;48.086;16.282;2023-08-31T05:56:33;1.80;;;1.70;;
12921;SDS011;6528;48.086;16.282;2023-08-31T05:59:01;1.60;;;1.50;;
12921;SDS011;6528;48.086;16.282;2023-08-31T06:01:30;1.37;;;1.27;;
12921;SDS011;6528;48.086;16.282;2023-08-31T06:03:57;2.00;;;1.47;;
12921;SDS011;6528;48.086;16.282;2023-08-31T06:06:26;1.57;;;1.47;;
12921;SDS011;6528;48.086;16.282;2023-08-31T06:08:53;1.20;;;1.20;;
12921;SDS011;6528;48.086;16.282;2023-08-31T06:11:22;1.30;;;1.20;;
12921;SDS011;6528;48.086;16.282;2023-08-31T06:13:52;0.87;;;0.87;;
12921;SDS011;6528;48.086;16.282;2023-08-31T06:16:20;1.40;;;1.30;;
12921;SDS011;6528;48.086;16.282;2023-08-31T06:18:49;1.60;;;1.47;;
12921;SDS011;6528;48.086;16.282;2023-08-31T06:21:17;1.30;;;1.30;;
12921;SDS011;6528;48.086;16.282;2023-08-31T06:23:45;1.27;;;1.17;;
12921;SDS011;6528;48.086;16.282;2023-08-31T06:26:12;1.47;;;1.37;;
12921;SDS011;6528;48.086;16.282;2023-08-31T06:28:41;6.43;;;1.50;;
12921;SDS011;6528;48.086;16.282;2023-08-31T06:31:08;1.37;;;1.27;;
12921;SDS011;6528;48.086;16.282;2023-08-31T06:33:37;1.47;;;1.37;;
12921;SDS011;6528;48.086;16.282;2023-08-31T06:36:04;1.30;;;1.20;;
12921;SDS011;6528;48.086;16.282;2023-08-31T06:38:32;1.83;;;1.20;;
12921;SDS011;6528;48.086;16.282;2023-08-31T06:41:01;1.70;;;1.60;;
12921;SDS011;6528;48.086;16.282;2023-08-31T06:43:29;1.37;;;1.30;;
12921;SDS011;6528;48.086;16.282;2023-08-31T06:45:57;1.80;;;1.30;;
12921;SDS011;6528;48.086;16.282;2023-08-31T06:48:44;1.60;;;1.50;;
12921;SDS011;6528;48.086;16.282;2023-08-31T06:51:12;1.70;;;1.60;;
12921;SDS011;6528;48.086;16.282;2023-08-31T06:53:41;1.30;;;1.20;;
12921;SDS011;6528;48.086;16.282;2023-08-31T06:56:10;2.27;;;1.77;;
12921;SDS011;6528;48.086;16.282;2023-08-31T06:58:37;1.80;;;1.30;;
12921;SDS011;6528;48.086;16.282;2023-08-31T07:01:07;1.50;;;1.40;;
12921;SDS011;6528;48.086;16.282;2023-08-31T07:03:35;1.60;;;1.50;;
12921;SDS011;6528;48.086;16.282;2023-08-31T07:06:04;1.43;;;1.33;;
12921;SDS011;6528;48.086;16.282;2023-08-31T07:08:31;1.50;;;1.40;;
12921;SDS011;6528;48.086;16.282;2023-08-31T07:11:00;1.43;;;1.37;;
12921;SDS011;6528;48.086;16.282;2023-08-31T07:13:27;1.53;;;1.33;;
12921;SDS011;6528;48.086;16.282;2023-08-31T07:15:55;1.80;;;1.70;;
12921;SDS011;6528;48.086;16.282;2023-08-31T07:18:23;1.37;;;1.30;;
12921;SDS011;6528;48.086;16.282;2023-08-31T07:20:51;2.37;;;1.30;;
12921;SDS011;6528;48.086;16.282;2023-08-31T07:23:19;2.00;;;1.37;;
12921;SDS011;6528;48.086;16.282;2023-08-31T07:25:47;1.73;;;1.63;;
12921;SDS011;6528;48.086;16.282;2023-08-31T07:28:15;1.70;;;1.60;;
12921;SDS011;6528;48.086;16.282;2023-08-31T07:30:43;1.40;;;1.30;;
12921;SDS011;6528;48.086;16.282;2023-08-31T07:33:10;1.40;;;1.30;;
12921;SDS011;6528;48.086;16.282;2023-08-31T07:35:56;1.40;;;1.30;;
12921;SDS011;6528;48.086;16.282;2023-08-31T07:38:26;1.47;;;1.37;;
12921;SDS011;6528;48.086;16.282;2023-08-31T07:40:55;1.37;;;1.27;;
12921;SDS011;6528;48.086;16.282;2023-08-31T07:43:22;1.67;;;1.57;;
12921;SDS011;6528;48.086;16.282;2023-08-31T07:45:51;1.27;;;1.20;;
12921;SDS011;6528;48.086;16.282;2023-08-31T07:48:22;1.50;;;1.40;;
12921;SDS011;6528;48.086;16.282;2023-08-31T07:50:50;1.50;;;1.40;;
12921;SDS011;6528;48.086;16.282;2023-08-31T07:53:19;1.50;;;1.40;;
12921;SDS011;6528;48.086;16.282;2023-08-31T07:55:53;2.53;;;1.60;;
12921;SDS011;6528;48.086;16.282;2023-08-31T07:58:23;2.30;;;1.40;;
12921;SDS011;6528;48.086;16.282;2023-08-31T08:00:54;2.07;;;1.87;;
12921;SDS011;6528;48.086;16.282;2023-08-31T08:03:25;1.83;;;1.73;;
12921;SDS011;6528;48.086;16.282;2023-08-31T08:05:55;1.90;;;1.80;;
12921;SDS011;6528;48.086;16.282;2023-08-31T08:08:23;1.63;;;1.53;;
12921;SDS011;6528;48.086;16.282;2023-08-31T08:10:52;2.10;;;1.90;;
12921;SDS011;6528;48.086;16.282;2023-08-31T08:13:20;2.03;;;1.87;;
12921;SDS011;6528;48.086;16.282;2023-08-31T08:15:48;1.33;;;1.33;;
12921;SDS011;6528;48.086;16.282;2023-08-31T08:18:17;1.50;;;1.40;;
12921;SDS011;6528;48.086;16.282;2023-08-31T08:20:50;1.70;;;1.60;;
12921;SDS011;6528;48.086;16.282;2023-08-31T08:23:18;2.27;;;2.07;;
12921;SDS011;6528;48.086;16.282;2023-08-31T08:25:48;1.70;;;1.60;;
12921;SDS011;6528;48.086;16.282;2023-08-31T08:28:17;1.70;;;1.60;;
12921;SDS011;6528;48.086;16.282;2023-08-31T08:30:44;1.83;;;1.30;;
12921;SDS011;6528;48.086;16.282;2023-08-31T08:33:12;1.57;;;1.47;;
12921;SDS011;6528;48.086;16.282;2023-08-31T08:35:40;1.23;;;1.13;;
12921;SDS011;6528;48.086;16.282;2023-08-31T08:38:08;1.40;;;1.30;;
12921;SDS011;6528;48.086;16.282;2023-08-31T08:40:35;1.53;;;1.53;;
12921;SDS011;6528;48.086;16.282;2023-08-31T08:43:06;1.67;;;1.57;;
12921;SDS011;6528;48.086;16.282;2023-08-31T08:45:37;4.40;;;1.57;;
12921;SDS011;6528;48.086;16.282;2023-08-31T08:48:08;1.53;;;1.43;;
12921;SDS011;6528;48.086;16.282;2023-08-31T08:50:37;1.90;;;1.80;;
12921;SDS011;6528;48.086;16.282;2023-08-31T08:53:06;1.90;;;1.80;;
12921;SDS011;6528;48.086;16.282;2023-08-31T08:55:34;2.30;;;1.57;;
12921;SDS011;6528;48.086;16.282;2023-08-31T08:58:01;2.00;;;1.60;;
12921;SDS011;6528;48.086;16.282;2023-08-31T09:00:30;1.37;;;1.27;;
12921;SDS011;6528;48.086;16.282;2023-08-31T09:02:58;1.70;;;1.60;;
12921;SDS011;6528;48.086;16.282;2023-08-31T09:05:33;2.00;;;1.43;;
12921;SDS011;6528;48.086;16.282;2023-08-31T09:08:01;1.90;;;1.53;;
12921;SDS011;6528;48.086;16.282;2023-08-31T09:10:44;1.50;;;1.30;;
12921;SDS011;6528;48.086;16.282;2023-08-31T09:13:14;2.97;;;1.50;;
12921;SDS011;6528;48.086;16.282;2023-08-31T09:15:46;1.93;;;1.60;;
12921;SDS011;6528;48.086;16.282;2023-08-31T09:20:57;1.70;;;1.60;;
12921;SDS011;6528;48.086;16.282;2023-08-31T09:23:24;2.40;;;1.40;;
12921;SDS011;6528;48.086;16.282;2023-08-31T09:25:53;2.17;;;1.40;;
12921;SDS011;6528;48.086;16.282;2023-08-31T09:28:23;1.73;;;1.40;;
12921;SDS011;6528;48.086;16.282;2023-08-31T09:31:15;4.20;;;1.40;;
12921;SDS011;6528;48.086;16.282;2023-08-31T09:33:53;1.50;;;1.40;;
12921;SDS011;6528;48.086;16.282;2023-08-31T09:36:20;1.57;;;1.47;;
12921;SDS011;6528;48.086;16.282;2023-08-31T09:38:50;3.30;;;1.70;;
12921;SDS011;6528;48.086;16.282;2023-08-31T09:41:17;1.40;;;1.30;;
12921;SDS011;6528;48.086;16.282;2023-08-31T09:43:46;1.50;;;1.33;;
12921;SDS011;6528;48.086;16.282;2023-08-31T09:46:13;1.70;;;1.40;;
12921;SDS011;6528;48.086;16.282;2023-08-31T09:48:42;1.20;;;1.10;;
12921;SDS011;6528;48.086;16.282;2023-08-31T09:51:13;1.13;;;1.13;;
12921;SDS011;6528;48.086;16.282;2023-08-31T09:53:44;1.33;;;1.30;;
12921;SDS011;6528;48.086;16.282;2023-08-31T09:56:18;1.90;;;1.30;;
12921;SDS011;6528;48.086;16.282;2023-08-31T09:58:48;2.30;;;1.50;;
12921;SDS011;6528;48.086;16.282;2023-08-31T10:01:17;2.03;;;1.83;;
12921;SDS011;6528;48.086;16.282;2023-08-31T10:03:55;5.30;;;1.77;;
12921;SDS011;6528;48.086;16.282;2023-08-31T10:06:23;1.40;;;0.90;;
12921;SDS011;6528;48.086;16.282;2023-08-31T10:08:52;1.30;;;1.20;;
12921;SDS011;6528;48.086;16.282;2023-08-31T10:11:21;1.77;;;1.50;;
12921;SDS011;6528;48.086;16.282;2023-08-31T10:13:54;1.60;;;1.50;;
12921;SDS011;6528;48.086;16.282;2023-08-31T10:16:26;2.20;;;1.37;;
12921;SDS011;6528;48.086;16.282;2023-08-31T10:18:55;1.87;;;1.13;;
12921;SDS011;6528;48.086;16.282;2023-08-31T10:21:23;1.70;;;1.53;;
12921;SDS011;6528;48.086;16.282;2023-08-31T10:23:51;1.90;;;1.27;;
12921;SDS011;6528;48.086;16.282;2023-08-31T10:26:23;1.13;;;1.13;;
12921;SDS011;6528;48.086;16.282;2023-08-31T10:28:52;2.40;;;1.60;;
12921;SDS011;6528;48.086;16.282;2023-08-31T10:31:20;1.13;;;1.00;;
12921;SDS011;6528;48.086;16.282;2023-08-31T10:33:55;1.37;;;1.27;;
12921;SDS011;6528;48.086;16.282;2023-08-31T10:39:20;1.20;;;1.20;;
12921;SDS011;6528;48.086;16.282;2023-08-31T10:41:55;0.80;;;0.80;;
12921;SDS011;6528;48.086;16.282;2023-08-31T10:44:26;1.00;;;0.90;;
12921;SDS011;6528;48.086;16.282;2023-08-31T10:47:02;0.90;;;0.90;;
12921;SDS011;6528;48.086;16.282;2023-08-31T10:49:31;0.93;;;0.87;;
12921;SDS011;6528;48.086;16.282;2023-08-31T10:52:19;4.10;;;1.20;;
12921;SDS011;6528;48.086;16.282;2023-08-31T10:55:07;1.20;;;0.90;;
12921;SDS011;6528;48.086;16.282;2023-08-31T10:57:35;1.17;;;1.07;;
12921;SDS011;6528;48.086;16.282;2023-08-31T11:00:03;1.00;;;0.87;;
12921;SDS011;6528;48.086;16.282;2023-08-31T11:07:47;1.30;;;1.20;;
12921;SDS011;6528;48.086;16.282;2023-08-31T11:10:17;1.50;;;1.30;;
12921;SDS011;6528;48.086;16.282;2023-08-31T11:12:47;1.00;;;1.00;;
12921;SDS011;6528;48.086;16.282;2023-08-31T11:15:24;0.80;;;0.80;;
12921;SDS011;6528;48.086;16.282;2023-08-31T11:17:55;1.30;;;1.20;;
12921;SDS011;6528;48.086;16.282;2023-08-31T11:20:23;2.37;;;1.17;;
12921;SDS011;6528;48.086;16.282;2023-08-31T11:22:55;1.20;;;0.90;;
12921;SDS011;6528;48.086;16.282;2023-08-31T11:25:24;1.20;;;1.10;;
12921;SDS011;6528;48.086;16.282;2023-08-31T11:27:53;1.20;;;1.10;;
12921;SDS011;6528;48.086;16.282;2023-08-31T11:30:26;2.17;;;1.10;;
12921;SDS011;6528;48.086;16.282;2023-08-31T11:32:55;0.80;;;0.80;;
12921;SDS011;6528;48.086;16.282;2023-08-31T11:35:23;1.03;;;1.00;;
12921;SDS011;6528;48.086;16.282;2023-08-31T11:37:52;1.03;;;1.00;;
12921;SDS011;6528;48.086;16.282;2023-08-31T11:40:23;1.10;;;1.10;;
12921;SDS011;6528;48.086;16.282;2023-08-31T11:42:53;1.30;;;1.20;;
12921;SDS011;6528;48.086;16.282;2023-08-31T11:45:20;1.33;;;1.30;;
12921;SDS011;6528;48.086;16.282;2023-08-31T11:47:50;0.90;;;0.90;;
12921;SDS011;6528;48.086;16.282;2023-08-31T11:50:19;1.97;;;1.23;;
12921;SDS011;6528;48.086;16.282;2023-08-31T11:52:48;1.00;;;1.00;;
12921;SDS011;6528;48.086;16.282;2023-08-31T11:55:17;1.43;;;1.00;;
12921;SDS011;6528;48.086;16.282;2023-08-31T11:57:51;1.10;;;1.10;;
12921;SDS011;6528;48.086;16.282;2023-08-31T12:00:21;1.33;;;1.10;;
12921;SDS011;6528;48.086;16.282;2023-08-31T12:02:58;1.00;;;1.00;;
12921;SDS011;6528;48.086;16.282;2023-08-31T12:05:27;1.37;;;1.20;;
12921;SDS011;6528;48.086;16.282;2023-08-31T12:07:59;0.83;;;0.83;;
12921;SDS011;6528;48.086;16.282;2023-08-31T12:10:26;1.33;;;1.23;;
12921;SDS011;6528;48.086;16.282;2023-08-31T12:13:07;2.00;;;1.27;;
12921;SDS011;6528;48.086;16.282;2023-08-31T12:15:37;1.30;;;1.20;;
12921;SDS011;6528;48.086;16.282;2023-08-31T12:18:06;0.97;;;0.97;;
12921;SDS011;6528;48.086;16.282;2023-08-31T12:20:49;1.37;;;1.27;;
12921;SDS011;6528;48.086;16.282;2023-08-31T12:23:19;1.17;;;1.10;;
12921;SDS011;6528;48.086;16.282;2023-08-31T12:25:51;1.40;;;1.30;;
12921;SDS011;6528;48.086;16.282;2023-08-31T12:28:21;1.40;;;1.30;;
12921;SDS011;6528;48.086;16.282;2023-08-31T12:30:51;0.83;;;0.80;;
12921;SDS011;6528;48.086;16.282;2023-08-31T12:33:24;2.00;;;1.20;;
12921;SDS011;6528;48.086;16.282;2023-08-31T12:35:52;1.40;;;1.30;;
12921;SDS011;6528;48.086;16.282;2023-08-31T12:38:20;1.23;;;1.17;;
12921;SDS011;6528;48.086;16.282;2023-08-31T12:40:48;0.90;;;0.90;;
12921;SDS011;6528;48.086;16.282;2023-08-31T12:43:17;1.03;;;1.03;;
12921;SDS011;6528;48.086;16.282;2023-08-31T12:45:44;1.03;;;1.03;;
12921;SDS011;6528;48.086;16.282;2023-08-31T12:48:13;1.17;;;1.00;;
12921;SDS011;6528;48.086;16.282;2023-08-31T12:50:44;1.27;;;1.17;;
12921;SDS011;6528;48.086;16.282;2023-08-31T12:53:11;2.47;;;1.40;;
12921;SDS011;6528;48.086;16.282;2023-08-31T12:55:40;1.20;;;1.10;;
12921;SDS011;6528;48.086;16.282;2023-08-31T12:58:07;1.20;;;1.10;;
12921;SDS011;6528;48.086;16.282;2023-08-31T13:00:36;1.20;;;1.20;;
12921;SDS011;6528;48.086;16.282;2023-08-31T13:03:04;1.30;;;1.20;;
12921;SDS011;6528;48.086;16.282;2023-08-31T13:05:33;1.33;;;1.23;;
12921;SDS011;6528;48.086;16.282;2023-08-31T13:08:03;1.40;;;1.30;;
12921;SDS011;6528;48.086;16.282;2023-08-31T13:10:31;1.10;;;1.10;;
12921;SDS011;6528;48.086;16.282;2023-08-31T13:13:00;1.40;;;1.30;;
12921;SDS011;6528;48.086;16.282;2023-08-31T13:15:28;1.50;;;1.40;;
12921;SDS011;6528;48.086;16.282;2023-08-31T13:17:58;1.43;;;1.27;;
12921;SDS011;6528;48.086;16.282;2023-08-31T13:20:26;1.00;;;1.00;;
12921;SDS011;6528;48.086;16.282;2023-08-31T13:22:54;1.37;;;1.27;;
12921;SDS011;6528;48.086;16.282;2023-08-31T13:25:22;1.47;;;1.00;;
12921;SDS011;6528;48.086;16.282;2023-08-31T13:27:53;1.10;;;1.00;;
12921;SDS011;6528;48.086;16.282;2023-08-31T13:30:20;0.90;;;0.90;;
12921;SDS011;6528;48.086;16.282;2023-08-31T13:32:49;1.37;;;0.77;;
12921;SDS011;6528;48.086;16.282;2023-08-31T13:35:17;1.00;;;1.00;;
12921;SDS011;6528;48.086;16.282;2023-08-31T13:37:44;1.23;;;1.20;;
12921;SDS011;6528;48.086;16.282;2023-08-31T13:40:12;1.33;;;1.20;;
12921;SDS011;6528;48.086;16.282;2023-08-31T13:42:48;1.50;;;1.40;;
12921;SDS011;6528;48.086;16.282;2023-08-31T13:45:26;1.00;;;1.00;;
12921;SDS011;6528;48.086;16.282;2023-08-31T13:47:54;1.10;;;1.10;;
12921;SDS011;6528;48.086;16.282;2023-08-31T13:50:21;1.67;;;1.57;;
12921;SDS011;6528;48.086;16.282;2023-08-31T13:52:49;1.60;;;1.50;;
12921;SDS011;6528;48.086;16.282;2023-08-31T13:55:18;1.40;;;1.30;;
12921;SDS011;6528;48.086;16.282;2023-08-31T13:57:45;1.00;;;0.90;;
12921;SDS011;6528;48.086;16.282;2023-08-31T14:00:14;1.37;;;1.27;;
12921;SDS011;6528;48.086;16.282;2023-08-31T14:02:42;1.20;;;1.10;;
12921;SDS011;6528;48.086;16.282;2023-08-31T14:05:11;1.10;;;1.00;;
12921;SDS011;6528;48.086;16.282;2023-08-31T14:07:41;1.40;;;1.30;;
12921;SDS011;6528;48.086;16.282;2023-08-31T14:10:09;1.10;;;1.10;;
12921;SDS011;6528;48.086;16.282;2023-08-31T14:12:38;1.40;;;1.30;;
12921;SDS011;6528;48.086;16.282;2023-08-31T14:15:06;1.10;;;1.10;;
12921;SDS011;6528;48.086;16.282;2023-08-31T14:17:34;1.33;;;1.23;;
12921;SDS011;6528;48.086;16.282;2023-08-31T14:20:01;1.10;;;1.10;;
12921;SDS011;6528;48.086;16.282;2023-08-31T14:22:32;1.47;;;1.33;;
12921;SDS011;6528;48.086;16.282;2023-08-31T14:25:00;1.07;;;1.07;;
12921;SDS011;6528;48.086;16.282;2023-08-31T14:27:30;1.50;;;1.40;;
12921;SDS011;6528;48.086;16.282;2023-08-31T14:29:58;1.83;;;1.30;;
12921;SDS011;6528;48.086;16.282;2023-08-31T14:32:26;2.00;;;1.90;;
12921;SDS011;6528;48.086;16.282;2023-08-31T14:34:54;1.80;;;1.50;;
12921;SDS011;6528;48.086;16.282;2023-08-31T14:37:22;1.63;;;1.20;;
12921;SDS011;6528;48.086;16.282;2023-08-31T14:39:51;1.87;;;1.40;;
12921;SDS011;6528;48.086;16.282;2023-08-31T14:42:19;1.40;;;1.27;;
12921;SDS011;6528;48.086;16.282;2023-08-31T14:44:47;1.47;;;1.37;;
12921;SDS011;6528;48.086;16.282;2023-08-31T14:47:16;1.40;;;1.30;;
12921;SDS011;6528;48.086;16.282;2023-08-31T14:49:44;1.50;;;1.40;;
12921;SDS011;6528;48.086;16.282;2023-08-31T14:52:12;2.73;;;1.63;;
12921;SDS011;6528;48.086;16.282;2023-08-31T14:54:40;1.60;;;1.50;;
12921;SDS011;6528;48.086;16.282;2023-08-31T14:57:09;1.37;;;1.27;;
12921;SDS011;6528;48.086;16.282;2023-08-31T14:59:36;1.23;;;1.23;;
12921;SDS011;6528;48.086;16.282;2023-08-31T15:02:05;1.80;;;1.37;;
12921;SDS011;6528;48.086;16.282;2023-08-31T15:04:35;1.40;;;1.30;;
12921;SDS011;6528;48.086;16.282;2023-08-31T15:07:02;1.40;;;1.30;;
12921;SDS011;6528;48.086;16.282;2023-08-31T15:09:31;1.40;;;1.30;;
12921;SDS011;6528;48.086;16.282;2023-08-31T15:11:59;1.40;;;1.30;;
12921;SDS011;6528;48.086;16.282;2023-08-31T15:14:27;1.30;;;1.20;;
12921;SDS011;6528;48.086;16.282;2023-08-31T15:16:54;2.17;;;1.97;;
12921;SDS011;6528;48.086;16.282;2023-08-31T15:19:23;1.73;;;1.63;;
12921;SDS011;6528;48.086;16.282;2023-08-31T15:21:50;1.40;;;1.30;;
12921;SDS011;6528;48.086;16.282;2023-08-31T15:24:18;1.50;;;1.40;;